Alden, Michigan
Current Conditions -  °F | °C
As of 3:17 AM on Monday 24 Nov 2014 (Local Time) from KACB Reporting Station
Unknown Precip Unknown Precip  
Wind Chill: 42°   Ceiling: NA
Heat Index: 42°   Visibility: 0.75mi
Dew Point: 41°   Wind: 0mph
Humidity: 95%   Direction: NA
Pressure: 29"   Gusts: NA
Location:  44.88°N, 85.28°W
Report Text: KACB 240817Z AUTO 00000KT 3/4SM UP 06/05 A2900 RMK AO2 T00570050
Loading
Personal Weather Stations






























Interactive Weather Map New forecast layout! Learn more

10-Day Weather Forecast

Advertisements
Track Severe Weather on mobile